METAR Data
IDs: Format: Raw Decoded Include TAF

Data at: 1607 UTC 18 Feb 2019

METAR for:KICL (Clarinda/Schenck Fld, IA, US)
Text:KICL 181555Z AUTO 35007KT 10SM BKN013 OVC025 M09/M12 A3048 RMK AO2
Temperature: -9.0°C ( 16°F)
Dewpoint:-12.0°C ( 10°F) [RH = 79%]
Pressure (altimeter):30.48 inches Hg (1032.3 mb)
Winds:from the N (350 degrees) at 8 MPH (7 knots; 3.6 m/s)
Visibility:10 or more sm (16+ km)
Ceiling:1300 feet AGL
Clouds: broken clouds at 1300 feet AGL, overcast cloud deck at 2500 feet AGL
QC Flag:automated observation with no human augmentation